WetterOnline ( https://www.wetteronline.de )

Wetter aktuell Murnau

Aktuelles Wetter: Hohenpeißenberg (986m)

6-stündlich | Neueste Meldungen
Ortszeit Temperatur Wetter
Mo, 22.04. 14:00 18.0° C leicht bewölkt
Mo, 22.04. 8:00 14.3° C leicht bewölkt
Mo, 22.04. 2:00 12.7° C wolkig
So, 21.04. 20:00 15.0° C fast wolkenlos
So, 21.04. 14:00 17.8° C wolkenlos
So, 21.04. 8:00 11.9° C wolkenlos
So, 21.04. 2:00 11.7° C wolkenlos
Sa, 20.04. 20:00 14.9° C wolkenlos
Ortszeit Temperatur Wetter
Mo, 22.04. 14:30 18.3° C leicht bewölkt
Mo, 22.04. 14:20 18.3° C leicht bewölkt
Mo, 22.04. 14:10 18.2° C leicht bewölkt
Mo, 22.04. 14:00 18.0° C leicht bewölkt
Mo, 22.04. 13:50 18.0° C wolkig
Mo, 22.04. 13:40 17.8° C wolkig
Mo, 22.04. 13:30 17.5° C bedeckt
Mo, 22.04. 13:00 17.1° C leicht bewölkt
Mo, 22.04. 12:30 16.3° C bewölkt
Mo, 22.04. 12:00 15.5° C wolkig
Mo, 22.04. 11:30 15.0° C wolkig
Ortszeit Relative Feuchte Sichtweite
Mo, 22.04. 14:00 33% 45 km
Mo, 22.04. 8:00 27% 60 km
Mo, 22.04. 2:00 40% 50 km
So, 21.04. 20:00 35% 60 km
So, 21.04. 14:00 32% 40 km
So, 21.04. 8:00 38% >70 km
So, 21.04. 2:00 43% 55 km
Sa, 20.04. 20:00 33% 50 km
Ortszeit Relative Feuchte Sichtweite
Mo, 22.04. 14:30 31% 55 km
Mo, 22.04. 14:20 31% -
Mo, 22.04. 14:10 30% -
Mo, 22.04. 14:00 33% 45 km
Mo, 22.04. 13:50 33% -
Mo, 22.04. 13:40 33% -
Mo, 22.04. 13:30 35% >70 km
Mo, 22.04. 13:00 39% >70 km
Mo, 22.04. 12:30 38% 60 km
Mo, 22.04. 12:00 41% 50 km
Mo, 22.04. 11:30 47% -
Ortszeit Niederschlagsmenge Niederschlagsart
Mo, 22.04. 14:00 0.0 l/m2 in 6 Std. -
Mo, 22.04. 8:00 0.0 l/m2 in 12 Std. -
Mo, 22.04. 2:00 0.0 l/m2 in 6 Std. -
So, 21.04. 20:00 0.0 l/m2 in 12 Std. -
So, 21.04. 14:00 0.0 l/m2 in 6 Std. -
So, 21.04. 8:00 0.0 l/m2 in 12 Std. -
So, 21.04. 2:00 0.0 l/m2 in 6 Std. -
Sa, 20.04. 20:00 0.0 l/m2 in 12 Std. -
Ortszeit Niederschlagsmenge Niederschlagsart
Mo, 22.04. 14:30 0.0 l/m2 in 1 Std. -
Mo, 22.04. 14:20 keine Meldung -
Mo, 22.04. 14:10 keine Meldung -
Mo, 22.04. 14:00 0.0 l/m2 in 1 Std. -
Mo, 22.04. 13:50 keine Meldung -
Mo, 22.04. 13:40 keine Meldung -
Mo, 22.04. 13:30 0.0 l/m2 in 1 Std. -
Mo, 22.04. 13:00 0.0 l/m2 in 1 Std. -
Mo, 22.04. 12:30 keine Meldung -
Mo, 22.04. 12:00 0.0 l/m2 in 1 Std. -
Mo, 22.04. 11:30 keine Meldung -
Ortszeit Stärke Spitze Richtung
km/h Bft. km/h Grad Sektor
Mo, 22.04. 14:00 18 3 32 60° NO
Mo, 22.04. 8:00 9 2 20 140° SO
Mo, 22.04. 2:00 11 2 32 120° SO
So, 21.04. 20:00 15 3 30 60° NO
So, 21.04. 14:00 15 3 33 40° NO
So, 21.04. 8:00 11 2 29 100° O
So, 21.04. 2:00 7 2 29 130° SO
Sa, 20.04. 20:00 18 3 29 40° NO
Ortszeit Stärke Spitze Richtung
km/h Bft. km/h Grad Sektor
Mo, 22.04. 14:30 18 3 29 60° NO
Mo, 22.04. 14:20 18 3 - 60° NO
Mo, 22.04. 14:10 17 3 - 50° NO
Mo, 22.04. 14:00 18 3 32 60° NO
Mo, 22.04. 13:50 18 3 - 60° NO
Mo, 22.04. 13:40 18 3 - 60° NO
Mo, 22.04. 13:30 17 3 28 50° NO
Mo, 22.04. 13:00 17 3 28 60° NO
Mo, 22.04. 12:30 17 3 28 60° NO
Mo, 22.04. 12:00 18 3 29 60° NO
Mo, 22.04. 11:30 17 3 - 60° NO
Ortszeit Untergrenze Bedeckung Gattung
total tief tief mittel hoch
Mo, 22.04. 14:00 7200 m 8/8 0/8 - - -
Mo, 22.04. 8:00 8100 m 7/8 0/8 - - -
Mo, 22.04. 2:00 9000 m 8/8 0/8 - - -
So, 21.04. 20:00 8700 m 1/8 0/8 - - -
So, 21.04. 14:00 - 0/8 0/8 - - -
So, 21.04. 8:00 - 0/8 0/8 - - -
So, 21.04. 2:00 - 0/8 0/8 - - -
Sa, 20.04. 20:00 - 0/8 0/8 - - -
Ortszeit Bedeckungsgrad in Achtel und Wolkenuntergrenze
Mo, 22.04. 14:30 5(8100m)
Mo, 22.04. 14:20 5(8100m)
Mo, 22.04. 14:10 2(6900m) 5(8100m)
Mo, 22.04. 14:00 6(7200m) 8(8100m) 8(8700m)
Mo, 22.04. 13:50 6(7200m) 8(8100m) 8(8700m)
Mo, 22.04. 13:40 2(6900m) 8(7800m) 8(8700m)
Mo, 22.04. 13:30 8(6900m) 8(8100m) 8(8100m)
Mo, 22.04. 13:00 5(7500m) 8(8100m)
Mo, 22.04. 12:30 7(6900m) 8(8400m)
Mo, 22.04. 12:00 8(6900m) 8(9000m)
Mo, 22.04. 11:30 8(7200m)
Ortszeit Stationsdruck (hPa) Tendenz (hPa in 3 Std.)
Mo, 22.04. 14:00 896 - 1,9
Mo, 22.04. 8:00 899 - 1,0
Mo, 22.04. 2:00 902 - 1,2
So, 21.04. 20:00 904 - 0,9
So, 21.04. 14:00 906 - 1,1
So, 21.04. 8:00 908 - 0,9
So, 21.04. 2:00 910 - 1,2
Sa, 20.04. 20:00 911 - 0,8
Ortszeit Stationsdruck (hPa) Tendenz (hPa in 3 Std.)
Mo, 22.04. 14:30 896 - 2,0
Mo, 22.04. 14:20 896 keine Meldung
Mo, 22.04. 14:10 896 keine Meldung
Mo, 22.04. 14:00 896 - 1,9
Mo, 22.04. 13:50 896 keine Meldung
Mo, 22.04. 13:40 896 keine Meldung
Mo, 22.04. 13:30 897 - 1,7
Mo, 22.04. 13:00 897 - 1,5
Mo, 22.04. 12:30 898 - 1,2
Mo, 22.04. 12:00 898 - 1,0
Mo, 22.04. 11:30 898 keine Meldung
Ortszeit Schneehöhe (cm)
Mo, 22.04. 14:00 0
Mo, 22.04. 8:00 0
Mo, 22.04. 2:00 0
So, 21.04. 20:00 0
So, 21.04. 14:00 0
So, 21.04. 8:00 0
So, 21.04. 2:00 0
Sa, 20.04. 20:00 0
Ortszeit Schneehöhe (cm)
Mo, 22.04. 14:30 0
Mo, 22.04. 14:20 0
Mo, 22.04. 14:10 0
Mo, 22.04. 14:00 0
Mo, 22.04. 13:50 0
Mo, 22.04. 13:40 0
Mo, 22.04. 13:30 0
Mo, 22.04. 13:00 0
Mo, 22.04. 12:30 0
Mo, 22.04. 12:00 0
Mo, 22.04. 11:30 0
Link zu dieser Seite / Seite empfehlen

Das Wetter in ...